createdAt,value
2022-10-28T00:01:51.382Z,7.90
2022-10-28T00:04:20.933Z,10.73
2022-10-28T00:06:50.441Z,10.63
2022-10-28T00:09:20.754Z,8.02
2022-10-28T00:11:52.665Z,7.97
2022-10-28T00:14:20.787Z,8.43
2022-10-28T00:16:50.443Z,9.43
2022-10-28T00:19:18.835Z,17.05
2022-10-28T00:21:49.470Z,10.15
2022-10-28T00:24:18.830Z,6.38
2022-10-28T00:26:47.020Z,8.65
2022-10-28T00:29:20.154Z,12.27
2022-10-28T00:34:19.378Z,8.80
2022-10-28T00:36:49.686Z,9.45
2022-10-28T00:39:20.282Z,8.25
2022-10-28T00:41:53.310Z,5.60
2022-10-28T00:45:00.688Z,12.80
2022-10-28T00:47:52.543Z,6.32
2022-10-28T00:50:38.526Z,8.95
2022-10-28T00:53:13.373Z,5.55
2022-10-28T00:55:44.074Z,9.88
2022-10-28T00:58:14.450Z,6.55
2022-10-28T01:00:45.165Z,10.95
2022-10-28T01:03:14.580Z,11.18
2022-10-28T01:05:45.453Z,8.23
2022-10-28T01:08:14.090Z,8.20
2022-10-28T01:11:08.559Z,8.40
2022-10-28T01:13:51.870Z,8.18
2022-10-28T01:19:21.818Z,8.77
2022-10-28T01:22:17.953Z,11.07
2022-10-28T01:25:10.968Z,11.75
2022-10-28T01:28:14.522Z,12.43
2022-10-28T01:31:15.274Z,8.32
2022-10-28T01:33:53.671Z,9.57
2022-10-28T01:36:38.071Z,8.30
2022-10-28T01:39:19.585Z,7.15
2022-10-28T01:41:57.494Z,9.77
2022-10-28T01:44:32.656Z,7.55
2022-10-28T01:47:11.063Z,5.28
2022-10-28T01:49:48.329Z,10.98
2022-10-28T01:52:23.557Z,9.25
2022-10-28T01:55:00.201Z,8.40
2022-10-28T01:57:32.312Z,9.15
2022-10-28T02:00:02.812Z,8.25
2022-10-28T02:02:43.883Z,11.73
2022-10-28T02:08:53.233Z,9.85
2022-10-28T02:11:50.054Z,8.95
2022-10-28T02:14:34.349Z,8.65
2022-10-28T02:17:17.763Z,6.30
2022-10-28T02:19:54.924Z,8.43
2022-10-28T02:22:32.719Z,5.40
2022-10-28T02:25:09.753Z,7.43
2022-10-28T02:27:50.043Z,8.63
2022-10-28T02:30:24.888Z,10.40
2022-10-28T02:33:00.946Z,9.32
2022-10-28T02:35:36.999Z,10.52
2022-10-28T02:38:13.607Z,9.10
2022-10-28T02:40:45.439Z,5.60
2022-10-28T02:43:19.027Z,13.07
2022-10-28T02:45:52.755Z,12.65
2022-10-28T02:48:26.694Z,13.60
2022-10-28T02:51:03.479Z,7.07
2022-10-28T02:53:45.997Z,8.43
2022-10-28T02:56:19.073Z,9.20
2022-10-28T02:58:49.619Z,6.85
2022-10-28T03:01:20.352Z,7.57
2022-10-28T03:03:48.618Z,11.85
2022-10-28T03:06:19.416Z,8.38
2022-10-28T03:08:48.800Z,11.27
2022-10-28T03:11:19.325Z,7.97
2022-10-28T03:13:47.667Z,7.80
2022-10-28T03:16:17.018Z,11.00
2022-10-28T03:18:46.303Z,9.25
2022-10-28T03:21:14.569Z,11.45
2022-10-28T03:23:44.041Z,9.77
2022-10-28T03:26:14.782Z,9.90
2022-10-28T03:28:42.912Z,10.35
2022-10-28T03:31:11.034Z,8.23
2022-10-28T03:33:40.375Z,7.38
2022-10-28T03:36:09.289Z,9.75
2022-10-28T03:38:38.652Z,7.82
2022-10-28T03:41:09.414Z,8.07
2022-10-28T03:43:40.022Z,8.30
2022-10-28T03:46:09.372Z,9.05
2022-10-28T03:48:38.695Z,9.45
2022-10-28T03:51:08.251Z,9.50
2022-10-28T03:53:37.624Z,5.47
2022-10-28T03:56:06.796Z,9.63
2022-10-28T03:58:40.914Z,6.22
2022-10-28T04:01:10.880Z,9.63
2022-10-28T04:03:41.590Z,14.00
2022-10-28T04:06:10.915Z,11.98
2022-10-28T04:08:40.790Z,13.32
2022-10-28T04:11:09.164Z,13.10
2022-10-28T04:13:39.870Z,14.65
2022-10-28T04:16:08.550Z,8.15
2022-10-28T04:18:39.194Z,10.82
2022-10-28T04:21:07.603Z,10.38
2022-10-28T04:23:37.293Z,10.82
2022-10-28T04:26:07.002Z,6.88
2022-10-28T04:28:37.892Z,8.70
2022-10-28T04:31:07.619Z,9.13
2022-10-28T04:33:36.931Z,8.38
2022-10-28T04:36:05.637Z,8.68
2022-10-28T04:38:33.781Z,5.93
2022-10-28T04:41:03.101Z,6.53
2022-10-28T04:43:32.576Z,8.88
2022-10-28T04:46:05.909Z,7.80
2022-10-28T04:48:37.189Z,8.88
2022-10-28T04:51:06.026Z,7.80
2022-10-28T04:53:37.264Z,6.18
2022-10-28T04:56:06.204Z,7.70
2022-10-28T04:58:34.450Z,10.27
2022-10-28T05:01:07.894Z,10.45
2022-10-28T05:03:39.892Z,7.68
2022-10-28T05:08:37.339Z,9.63
2022-10-28T05:11:06.880Z,11.05
2022-10-28T05:13:36.276Z,7.85
2022-10-28T05:16:04.597Z,17.65
2022-10-28T05:18:34.080Z,8.48
2022-10-28T05:21:05.138Z,9.85
2022-10-28T05:23:34.505Z,9.35
2022-10-28T05:26:04.244Z,11.63
2022-10-28T05:28:33.646Z,8.20
2022-10-28T05:31:01.841Z,9.55
2022-10-28T05:33:30.475Z,11.35
2022-10-28T05:36:00.123Z,13.45
2022-10-28T05:38:32.043Z,8.32
2022-10-28T05:41:00.514Z,12.80
2022-10-28T05:43:28.691Z,9.73
2022-10-28T05:45:58.667Z,11.63
2022-10-28T05:48:29.261Z,9.07
2022-10-28T05:50:57.473Z,21.00
2022-10-28T05:53:26.971Z,13.52
2022-10-28T05:55:56.451Z,13.18
2022-10-28T05:58:27.070Z,9.07
2022-10-28T06:00:56.438Z,13.27
2022-10-28T06:03:30.064Z,10.02
2022-10-28T06:05:59.759Z,10.05
2022-10-28T06:08:29.496Z,12.40
2022-10-28T06:10:59.821Z,14.52
2022-10-28T06:13:29.224Z,8.57
2022-10-28T06:15:58.606Z,11.23
2022-10-28T06:18:27.981Z,9.07
2022-10-28T06:20:57.419Z,12.55
2022-10-28T06:23:28.159Z,11.95
2022-10-28T06:26:00.519Z,9.95
2022-10-28T06:28:30.698Z,7.93
2022-10-28T06:31:02.594Z,11.10
2022-10-28T06:33:32.735Z,10.27
2022-10-28T06:36:01.474Z,9.48
2022-10-28T06:38:29.854Z,11.23
2022-10-28T06:41:01.382Z,9.50
2022-10-28T06:43:32.206Z,15.77
2022-10-28T06:46:04.434Z,9.57
2022-10-28T06:48:35.531Z,13.05
2022-10-28T06:51:05.451Z,11.38
2022-10-28T06:53:35.992Z,12.98
2022-10-28T06:56:08.023Z,12.27
2022-10-28T07:01:07.290Z,15.50
2022-10-28T07:03:38.489Z,12.95
2022-10-28T07:06:08.428Z,10.77
2022-10-28T07:08:39.083Z,8.95
2022-10-28T07:11:10.312Z,8.02
2022-10-28T07:13:42.533Z,8.02
2022-10-28T07:16:12.511Z,12.63
2022-10-28T07:18:40.888Z,14.52
2022-10-28T07:21:10.302Z,14.15
2022-10-28T07:23:40.847Z,12.60
2022-10-28T07:26:10.375Z,8.60
2022-10-28T07:28:39.807Z,14.13
2022-10-28T07:31:08.178Z,13.52
2022-10-28T07:33:36.496Z,7.93
2022-10-28T07:36:06.053Z,9.10
2022-10-28T07:38:36.132Z,11.55
2022-10-28T07:41:07.475Z,8.95
2022-10-28T07:43:40.243Z,8.70
2022-10-28T07:46:09.106Z,16.75
2022-10-28T07:48:39.843Z,10.45
2022-10-28T07:51:11.321Z,14.02
2022-10-28T07:53:41.102Z,8.52
2022-10-28T07:56:13.972Z,12.55
2022-10-28T07:58:46.629Z,9.32
2022-10-28T08:01:19.331Z,11.95
2022-10-28T08:03:50.217Z,10.90
2022-10-28T08:06:21.408Z,12.05
2022-10-28T08:08:54.338Z,11.65
2022-10-28T08:11:25.161Z,11.35
2022-10-28T08:13:56.456Z,11.65
2022-10-28T08:16:28.099Z,9.35
2022-10-28T08:18:57.408Z,11.98
2022-10-28T08:21:27.261Z,6.85
2022-10-28T08:23:57.961Z,9.20
2022-10-28T08:26:27.461Z,13.30
2022-10-28T08:29:01.506Z,10.10
2022-10-28T08:31:32.949Z,8.85
2022-10-28T08:34:02.425Z,9.60
2022-10-28T08:36:32.294Z,11.10
2022-10-28T08:39:03.034Z,8.95
2022-10-28T08:41:40.351Z,10.00
2022-10-28T08:44:48.800Z,8.82
2022-10-28T08:47:36.851Z,14.65
2022-10-28T08:50:14.583Z,12.18
2022-10-28T08:52:50.093Z,11.48
2022-10-28T08:55:24.539Z,11.73
2022-10-28T08:57:59.810Z,10.50
2022-10-28T09:00:33.536Z,10.02
2022-10-28T09:03:19.098Z,17.10
2022-10-28T09:05:54.312Z,14.75
2022-10-28T09:08:27.089Z,12.90
2022-10-28T09:11:34.823Z,7.97
2022-10-28T09:14:23.864Z,17.77
2022-10-28T09:17:09.162Z,10.70
2022-10-28T09:19:48.152Z,16.05
2022-10-28T09:22:26.500Z,8.70
2022-10-28T09:24:59.349Z,15.13
2022-10-28T09:27:56.520Z,6.88
2022-10-28T09:30:38.490Z,22.75
2022-10-28T09:33:44.058Z,11.65
2022-10-28T09:36:19.829Z,8.52
2022-10-28T09:38:48.856Z,8.57
2022-10-28T09:41:24.577Z,12.63
2022-10-28T09:44:00.889Z,15.38
2022-10-28T09:46:36.192Z,9.88
2022-10-28T09:49:13.364Z,17.63
2022-10-28T09:51:51.313Z,12.90
2022-10-28T09:54:31.237Z,10.57
2022-10-28T09:56:59.420Z,12.38
2022-10-28T09:59:27.648Z,8.82
2022-10-28T10:01:57.254Z,18.02
2022-10-28T10:04:31.250Z,13.75
2022-10-28T10:07:06.530Z,11.18
2022-10-28T10:09:37.244Z,9.85
2022-10-28T10:12:09.960Z,9.05
2022-10-28T10:14:45.043Z,12.68
2022-10-28T10:17:19.485Z,8.00
2022-10-28T10:20:04.004Z,13.65
2022-10-28T10:22:35.853Z,10.35
2022-10-28T10:25:23.165Z,12.45
2022-10-28T10:27:55.779Z,11.43
2022-10-28T10:30:29.532Z,7.53
2022-10-28T10:32:59.872Z,11.73
2022-10-28T10:35:33.711Z,13.10
2022-10-28T10:38:06.869Z,10.00
2022-10-28T10:40:48.033Z,12.45
2022-10-28T10:43:25.511Z,14.10
2022-10-28T10:46:03.048Z,15.60
2022-10-28T10:48:35.499Z,9.85
2022-10-28T10:51:09.900Z,14.63
2022-10-28T10:53:42.210Z,10.13
2022-10-28T10:56:15.613Z,14.75
2022-10-28T10:58:53.959Z,11.63
2022-10-28T11:01:25.778Z,10.80
2022-10-28T11:06:39.093Z,10.57
2022-10-28T11:09:21.509Z,9.18
2022-10-28T11:11:49.958Z,5.20
2022-10-28T11:14:27.180Z,12.95
2022-10-28T11:16:57.352Z,9.98
2022-10-28T11:19:32.402Z,10.85
2022-10-28T11:22:18.287Z,9.40
2022-10-28T11:25:22.894Z,8.93
2022-10-28T11:28:07.906Z,9.00
2022-10-28T11:30:54.144Z,11.63
2022-10-28T11:33:35.506Z,9.52
2022-10-28T11:36:24.927Z,11.95
2022-10-28T11:39:14.177Z,13.63
2022-10-28T11:41:57.950Z,10.07
2022-10-28T11:44:45.134Z,13.68
2022-10-28T11:47:36.365Z,13.15
2022-10-28T11:50:24.013Z,8.65
2022-10-28T11:53:24.934Z,19.33
2022-10-28T11:56:04.630Z,11.53
2022-10-28T11:58:45.663Z,5.93
2022-10-28T12:01:33.528Z,19.67
2022-10-28T12:04:42.974Z,13.07
2022-10-28T12:07:41.745Z,9.52
2022-10-28T12:10:31.006Z,11.93
2022-10-28T12:13:13.163Z,11.18
2022-10-28T12:15:51.335Z,12.60
2022-10-28T12:18:28.749Z,12.57
2022-10-28T12:21:07.474Z,8.07
2022-10-28T12:23:41.379Z,12.52
2022-10-28T12:26:14.913Z,10.80
2022-10-28T12:28:52.069Z,7.60
2022-10-28T12:31:27.941Z,15.93
2022-10-28T12:34:00.064Z,10.68
2022-10-28T12:36:36.873Z,16.55
2022-10-28T12:39:14.069Z,12.93
2022-10-28T12:41:56.477Z,12.80
2022-10-28T12:44:29.989Z,17.27
2022-10-28T12:47:15.305Z,11.85
2022-10-28T12:49:59.889Z,17.92
2022-10-28T12:52:41.384Z,11.05
2022-10-28T12:55:26.881Z,9.15
2022-10-28T12:58:03.579Z,10.88
2022-10-28T13:00:41.456Z,17.83
2022-10-28T13:03:14.806Z,10.85
2022-10-28T13:05:47.706Z,13.05
2022-10-28T13:08:51.269Z,13.25
2022-10-28T13:11:58.875Z,20.35
2022-10-28T13:15:11.904Z,20.08
2022-10-28T13:17:56.310Z,10.13
2022-10-28T13:20:41.768Z,13.13
2022-10-28T13:23:28.845Z,15.57
2022-10-28T13:26:07.573Z,12.52
2022-10-28T13:28:45.834Z,10.07
2022-10-28T13:31:15.423Z,9.55
2022-10-28T13:33:55.654Z,14.77
2022-10-28T13:36:31.108Z,14.88
2022-10-28T13:39:04.088Z,13.02
2022-10-28T13:41:37.051Z,18.85
2022-10-28T13:44:26.968Z,9.65
2022-10-28T13:47:31.772Z,17.50
2022-10-28T13:50:37.710Z,13.25
2022-10-28T13:53:56.521Z,10.07
2022-10-28T13:56:38.638Z,15.80
2022-10-28T13:59:21.790Z,18.70
2022-10-28T14:02:07.780Z,22.10
2022-10-28T14:04:54.637Z,13.55
2022-10-28T14:07:30.242Z,13.73
2022-10-28T14:10:26.650Z,8.85
2022-10-28T14:12:58.600Z,13.52
2022-10-28T14:15:31.075Z,11.20
2022-10-28T14:18:15.939Z,10.93
2022-10-28T14:21:02.613Z,11.02
2022-10-28T14:27:42.017Z,10.45
2022-10-28T14:30:25.265Z,12.77
2022-10-28T14:33:21.029Z,11.07
2022-10-28T14:36:10.173Z,11.43
2022-10-28T14:39:08.152Z,14.45
2022-10-28T14:42:02.879Z,18.15
2022-10-28T14:45:01.992Z,12.13
2022-10-28T14:47:59.802Z,18.95
2022-10-28T14:50:39.319Z,15.52
2022-10-28T14:53:18.474Z,8.88
2022-10-28T14:55:54.409Z,14.60
2022-10-28T14:58:25.888Z,20.40
2022-10-28T15:01:10.672Z,17.20
2022-10-28T15:03:40.003Z,12.45
2022-10-28T15:06:38.673Z,13.05
2022-10-28T15:09:21.943Z,16.88
2022-10-28T15:11:57.095Z,9.98
2022-10-28T15:14:37.906Z,12.77
2022-10-28T15:17:18.503Z,9.40
2022-10-28T15:19:48.789Z,11.02
2022-10-28T15:22:22.698Z,11.63
2022-10-28T15:24:57.872Z,15.07
2022-10-28T15:27:30.474Z,8.68
2022-10-28T15:30:00.019Z,10.02
2022-10-28T15:32:33.390Z,13.57
2022-10-28T15:35:39.906Z,11.15
2022-10-28T15:38:41.399Z,22.88
2022-10-28T15:41:45.515Z,12.10
2022-10-28T15:44:34.832Z,17.83
2022-10-28T15:47:19.848Z,15.20
2022-10-28T15:50:06.278Z,12.48
2022-10-28T15:52:41.914Z,13.98
2022-10-28T15:56:02.351Z,12.18
2022-10-28T15:58:36.562Z,17.35
2022-10-28T16:03:45.714Z,16.20
2022-10-28T16:06:28.098Z,17.80
2022-10-28T16:09:15.125Z,16.05
2022-10-28T16:11:47.244Z,11.00
2022-10-28T16:14:34.108Z,12.43
2022-10-28T16:17:17.678Z,8.95
2022-10-28T16:19:53.115Z,14.82
2022-10-28T16:22:26.840Z,26.50
2022-10-28T16:24:57.428Z,16.60
2022-10-28T16:27:31.316Z,17.73
2022-10-28T16:30:01.875Z,12.23
2022-10-28T16:32:35.612Z,20.58
2022-10-28T16:35:15.064Z,13.02
2022-10-28T16:37:49.504Z,9.48
2022-10-28T16:43:19.731Z,8.88
2022-10-28T16:45:51.390Z,13.25
2022-10-28T16:48:21.604Z,18.25
2022-10-28T16:50:55.018Z,13.10
2022-10-28T16:53:24.753Z,10.13
2022-10-28T16:55:59.976Z,10.93
2022-10-28T16:58:30.230Z,9.50
2022-10-28T17:01:02.838Z,16.88
2022-10-28T17:03:32.186Z,16.60
2022-10-28T17:06:01.630Z,12.57
2022-10-28T17:08:57.027Z,15.43
2022-10-28T17:11:21.987Z,9.43
2022-10-28T17:13:50.303Z,14.02
2022-10-28T17:16:19.669Z,15.43
2022-10-28T17:18:50.495Z,17.90
2022-10-28T17:21:19.883Z,10.75
2022-10-28T17:23:49.444Z,18.38
2022-10-28T17:26:18.850Z,13.02
2022-10-28T17:28:52.095Z,13.98
2022-10-28T17:31:25.101Z,14.45
2022-10-28T17:33:56.983Z,11.95
2022-10-28T17:36:26.565Z,16.35
2022-10-28T17:38:57.295Z,21.30
2022-10-28T17:41:26.679Z,13.82
2022-10-28T17:43:55.185Z,21.13
2022-10-28T17:46:24.746Z,12.52
2022-10-28T17:48:54.070Z,14.55
2022-10-28T17:51:25.122Z,13.55
2022-10-28T17:53:56.662Z,10.85
2022-10-28T17:56:26.236Z,9.68
2022-10-28T17:58:55.081Z,14.40
2022-10-28T18:01:24.715Z,19.30
2022-10-28T18:03:54.184Z,12.53
2022-10-28T18:06:22.665Z,14.07
2022-10-28T18:08:52.332Z,15.85
2022-10-28T18:11:23.224Z,13.85
2022-10-28T18:13:53.523Z,11.32
2022-10-28T18:16:24.224Z,13.32
2022-10-28T18:18:54.111Z,15.98
2022-10-28T18:21:24.738Z,13.32
2022-10-28T18:24:03.380Z,10.65
2022-10-28T18:26:35.792Z,13.38
2022-10-28T18:29:09.816Z,11.73
2022-10-28T18:31:40.583Z,9.45
2022-10-28T18:34:10.015Z,10.60
2022-10-28T18:36:39.987Z,15.82
2022-10-28T18:39:09.409Z,15.15
2022-10-28T18:41:41.912Z,16.60
2022-10-28T18:44:14.322Z,13.30
2022-10-28T18:46:46.310Z,19.43
2022-10-28T18:49:16.012Z,17.65
2022-10-28T18:51:46.590Z,16.55
2022-10-28T18:54:14.715Z,19.60
2022-10-28T18:56:47.679Z,16.20
2022-10-28T18:59:18.002Z,23.15
2022-10-28T19:01:48.343Z,14.50
2022-10-28T19:04:17.932Z,15.38
2022-10-28T19:06:48.480Z,15.95
2022-10-28T19:09:16.964Z,20.42
2022-10-28T19:11:46.451Z,15.77
2022-10-28T19:14:14.769Z,18.77
2022-10-28T19:16:42.908Z,17.83
2022-10-28T19:19:12.264Z,16.20
2022-10-28T19:21:41.715Z,15.18
2022-10-28T19:24:11.606Z,14.07
2022-10-28T19:26:42.209Z,19.25
2022-10-28T19:29:13.151Z,19.75
2022-10-28T19:31:43.437Z,23.88
2022-10-28T19:34:11.817Z,14.75
2022-10-28T19:36:41.196Z,17.13
2022-10-28T19:39:09.383Z,22.13
2022-10-28T19:41:38.717Z,20.27
2022-10-28T19:44:08.125Z,18.58
2022-10-28T19:46:39.192Z,21.20
2022-10-28T19:49:09.028Z,19.85
2022-10-28T19:51:42.589Z,14.82
2022-10-28T19:54:13.412Z,21.92
2022-10-28T19:56:44.288Z,15.73
2022-10-28T19:59:12.471Z,12.85
2022-10-28T20:01:44.521Z,18.35
2022-10-28T20:04:14.226Z,15.82
2022-10-28T20:06:43.724Z,21.30
2022-10-28T20:09:12.098Z,19.13
2022-10-28T20:11:40.907Z,17.00
2022-10-28T20:14:12.398Z,20.05
2022-10-28T20:16:44.927Z,13.82
2022-10-28T20:19:14.305Z,13.23
2022-10-28T20:21:46.195Z,19.02
2022-10-28T20:26:43.794Z,12.15
2022-10-28T20:29:11.997Z,20.35
2022-10-28T20:31:44.557Z,14.93
2022-10-28T20:34:13.924Z,20.33
2022-10-28T20:36:46.198Z,20.52
2022-10-28T20:39:16.973Z,15.23
2022-10-28T20:44:18.626Z,17.02
2022-10-28T20:46:51.509Z,19.10
2022-10-28T20:49:20.811Z,15.02
2022-10-28T20:51:50.691Z,16.65
2022-10-28T20:54:20.043Z,15.43
2022-10-28T20:56:50.578Z,18.77
2022-10-28T20:59:18.696Z,21.15
2022-10-28T21:01:52.907Z,17.60
2022-10-28T21:04:22.348Z,18.17
2022-10-28T21:06:51.704Z,20.27
2022-10-28T21:09:21.038Z,18.33
2022-10-28T21:11:51.592Z,18.55
2022-10-28T21:14:22.524Z,13.13
2022-10-28T21:16:53.234Z,19.33
2022-10-28T21:19:21.322Z,19.33
2022-10-28T21:21:50.859Z,16.17
2022-10-28T21:24:20.215Z,18.35
2022-10-28T21:26:52.181Z,17.17
2022-10-28T21:29:20.454Z,25.95
2022-10-28T21:31:48.746Z,17.60
2022-10-28T21:34:19.662Z,14.40
2022-10-28T21:36:50.203Z,20.67
2022-10-28T21:39:18.487Z,23.75
2022-10-28T21:41:47.813Z,23.17
2022-10-28T21:44:16.310Z,21.27
2022-10-28T21:46:49.041Z,20.80
2022-10-28T21:49:19.754Z,21.25
2022-10-28T21:51:50.298Z,22.02
2022-10-28T21:54:19.667Z,19.13
2022-10-28T21:56:51.068Z,24.80
2022-10-28T21:59:20.776Z,18.58
2022-10-28T22:01:51.562Z,22.30
2022-10-28T22:04:22.500Z,20.35
2022-10-28T22:06:51.809Z,16.70
2022-10-28T22:09:21.301Z,23.83
2022-10-28T22:11:49.487Z,17.95
2022-10-28T22:14:18.807Z,22.95
2022-10-28T22:16:47.033Z,17.92
2022-10-28T22:19:16.788Z,20.40
2022-10-28T22:21:47.732Z,17.60
2022-10-28T22:24:16.622Z,18.10
2022-10-28T22:26:47.195Z,18.42
2022-10-28T22:29:15.542Z,21.15
2022-10-28T22:31:44.890Z,24.77
2022-10-28T22:34:13.048Z,19.13
2022-10-28T22:36:43.229Z,17.17
2022-10-28T22:39:14.023Z,24.33
2022-10-28T22:41:43.381Z,19.83
2022-10-28T22:44:11.448Z,22.15
2022-10-28T22:46:41.141Z,20.35
2022-10-28T22:49:10.601Z,25.27
2022-10-28T22:51:41.193Z,24.08
2022-10-28T22:54:10.488Z,20.27
2022-10-28T22:56:41.950Z,18.50
2022-10-28T22:59:10.092Z,21.05
2022-10-28T23:01:39.463Z,21.90
2022-10-28T23:04:12.166Z,17.80
2022-10-28T23:06:41.765Z,23.70
2022-10-28T23:09:11.115Z,20.13
2022-10-28T23:11:41.840Z,23.55
2022-10-28T23:14:10.385Z,26.08
2022-10-28T23:16:39.753Z,20.52
2022-10-28T23:19:07.887Z,26.58
2022-10-28T23:21:36.165Z,18.95
2022-10-28T23:24:04.370Z,16.45
2022-10-28T23:26:33.762Z,20.13
2022-10-28T23:29:04.699Z,20.92
2022-10-28T23:31:34.128Z,20.02
2022-10-28T23:34:02.270Z,27.85
2022-10-28T23:36:31.683Z,27.88
2022-10-28T23:39:01.605Z,24.45
2022-10-28T23:41:32.159Z,19.25
2022-10-28T23:44:00.566Z,28.63
2022-10-28T23:46:36.621Z,25.90
2022-10-28T23:49:07.022Z,19.40
2022-10-28T23:51:36.381Z,18.25
2022-10-28T23:54:05.070Z,22.58
2022-10-28T23:56:35.613Z,23.10
2022-10-28T23:59:05.059Z,21.65
